Time;durP1;ratioP1;P1;durP2;ratioP2;P2;SDS_P1;SDS_P2;PMS_P1;PMS_P2;Temp;Humidity;BMP_temperature;BMP_pressure;BME280_temperature;BME280_humidity;BME280_pressure;Samples;Min_cycle;Max_cycle;Signal;HPM_P1;HPM_P2
2022/10/28 00:00:26;;;;;;;14.30;5.43;;;14.60;99.90;;;;;;5015413;28;20211;-96
2022/10/28 00:02:52;;;;;;;8.20;5.20;;;14.50;99.90;;;;;;5000314;28;20191;-96
2022/10/28 00:05:18;;;;;;;6.03;4.83;;;14.40;99.90;;;;;;5023543;28;20190;-96
2022/10/28 00:07:44;;;;;;;8.93;5.37;;;14.40;99.90;;;;;;5020251;28;20222;-96
2022/10/28 00:10:10;;;;;;;6.10;4.50;;;14.40;99.90;;;;;;5002658;28;20311;-96
2022/10/28 00:12:37;;;;;;;10.90;4.70;;;14.40;99.90;;;;;;4999297;28;20216;-96
2022/10/28 00:15:04;;;;;;;5.53;4.50;;;14.50;99.90;;;;;;4999769;28;20219;-96
2022/10/28 00:17:30;;;;;;;6.57;4.60;;;14.40;99.90;;;;;;4999225;28;20224;-96
2022/10/28 00:19:56;;;;;;;10.67;5.30;;;14.40;99.90;;;;;;4983482;28;20220;-96
2022/10/28 00:22:22;;;;;;;7.33;5.10;;;14.40;99.90;;;;;;4998744;28;20229;-96
2022/10/28 00:24:48;;;;;;;7.13;4.20;;;14.30;99.90;;;;;;4998735;28;20224;-96
2022/10/28 00:27:14;;;;;;;5.10;4.37;;;14.20;99.90;;;;;;4988398;28;20228;-96
2022/10/28 00:29:40;;;;;;;6.00;4.63;;;14.20;99.90;;;;;;4997931;28;20209;-96
2022/10/28 00:32:06;;;;;;;5.97;4.00;;;14.20;99.90;;;;;;4996511;28;20183;-95
2022/10/28 00:34:31;;;;;;;7.73;4.17;;;14.10;99.90;;;;;;4994983;28;20254;-96
2022/10/28 00:36:57;;;;;;;12.40;5.63;;;14.10;99.90;;;;;;4995505;28;20266;-96
2022/10/28 00:39:24;;;;;;;10.80;6.10;;;14.20;99.90;;;;;;4994192;28;20299;-96
2022/10/28 00:42:02;;;;;;;12.87;5.27;;;14.30;99.90;;;;;;5025539;28;20652;-96
2022/10/28 00:44:47;;;;;;;7.63;5.97;;;14.40;99.90;;;;;;5020660;28;20167;-96
2022/10/28 00:47:26;;;;;;;6.87;5.47;;;14.40;99.90;;;;;;5019345;28;20246;-96
2022/10/28 00:49:56;;;;;;;7.70;5.37;;;14.40;99.90;;;;;;5019086;28;20218;-96
2022/10/28 00:52:25;;;;;;;8.17;4.40;;;14.40;99.90;;;;;;5020197;28;20215;-96
2022/10/28 00:54:55;;;;;;;7.33;4.93;;;14.40;99.90;;;;;;5019790;28;20215;-96
2022/10/28 00:57:31;;;;;;;7.63;5.60;;;14.40;99.90;;;;;;5020235;28;20560;-96
2022/10/28 01:00:09;;;;;;;8.50;5.27;;;14.30;99.90;;;;;;5014816;28;20214;-96
2022/10/28 01:02:50;;;;;;;10.77;5.13;;;14.20;99.90;;;;;;5032200;28;20159;-96
2022/10/28 01:05:33;;;;;;;6.97;5.03;;;14.20;99.90;;;;;;5022229;28;20194;-96
2022/10/28 01:08:18;;;;;;;5.90;5.10;;;14.20;99.90;;;;;;5031527;28;20322;-96
2022/10/28 01:11:29;;;;;;;10.27;5.30;;;14.20;99.90;;;;;;5002003;28;20698;-96
2022/10/28 01:13:58;;;;;;;9.63;5.27;;;14.20;99.90;;;;;;5025761;28;20769;-96
2022/10/28 01:16:43;;;;;;;10.43;6.00;;;14.30;99.90;;;;;;5024210;28;20229;-96
2022/10/28 01:19:53;;;;;;;8.10;5.80;;;14.30;99.90;;;;;;5008193;28;20303;-96
2022/10/28 01:23:07;;;;;;;7.83;5.47;;;14.20;99.90;;;;;;5013828;28;20285;-96
2022/10/28 01:25:50;;;;;;;12.40;5.53;;;14.30;99.90;;;;;;5029827;28;20278;-96
2022/10/28 01:28:51;;;;;;;7.03;5.90;;;14.30;99.90;;;;;;5038604;28;20167;-96
2022/10/28 01:36:28;;;;;;;;;;;;;;;;;;;;;
2022/10/28 01:47:08;;;;;;;9.10;6.40;;;14.40;99.90;;;;;;4965185;28;20412;-96
2022/10/28 01:50:13;;;;;;;11.10;5.30;;;14.30;99.90;;;;;;5012825;28;20228;-96
2022/10/28 01:52:49;;;;;;;6.50;5.27;;;14.30;99.90;;;;;;5017975;28;20215;-96
2022/10/28 01:59:39;;;;;;;6.83;5.17;;;14.20;99.90;;;;;;4964877;28;20670;-96
2022/10/28 02:03:04;;;;;;;;;;;;;;;;;;;;;
2022/10/28 02:17:49;;;;;;;8.83;4.60;;;14.30;99.90;;;;;;5040968;28;20268;-96
2022/10/28 02:20:47;;;;;;;5.63;4.30;;;14.20;99.90;;;;;;4997616;28;20226;-96
2022/10/28 02:23:27;;;;;;;6.53;4.37;;;14.20;99.90;;;;;;5004681;28;20188;-96
2022/10/28 02:30:06;;;;;;;9.10;5.37;;;14.20;99.90;;;;;;5003132;28;20230;-96
2022/10/28 02:33:04;;;;;;;;;;;;;;;;;;;;;
2022/10/28 02:50:54;;;;;;;8.17;5.83;;;14.20;99.90;;;;;;4998050;28;20261;-95
2022/10/28 03:24:01;;;;;;;10.17;6.43;;;14.20;99.90;;;;;;4994478;28;20223;-96
2022/10/28 03:30:33;;;;;;;10.27;4.53;;;14.20;99.90;;;;;;4980893;28;20230;-96
2022/10/28 03:33:02;;;;;;;11.83;5.73;;;14.20;99.90;;;;;;4999893;28;20219;-96
2022/10/28 03:35:47;;;;;;;8.10;6.43;;;14.20;99.90;;;;;;4996474;28;20624;-95
2022/10/28 03:38:24;;;;;;;8.07;5.77;;;14.20;99.90;;;;;;4975149;28;20233;-95
2022/10/28 03:41:10;;;;;;;9.07;5.13;;;14.20;99.90;;;;;;4999240;28;20207;-95
2022/10/28 03:43:49;;;;;;;14.70;5.93;;;14.10;99.90;;;;;;4999340;28;20222;-96
2022/10/28 03:46:38;;;;;;;8.90;5.37;;;14.20;99.90;;;;;;4963729;28;20219;-96
2022/10/28 03:49:27;;;;;;;7.60;5.97;;;14.20;99.90;;;;;;4999622;28;20213;-96
2022/10/28 03:52:11;;;;;;;8.67;5.83;;;14.20;99.90;;;;;;4984806;28;20681;-96
2022/10/28 03:54:49;;;;;;;17.23;7.57;;;14.30;99.90;;;;;;4986573;28;20218;-96
2022/10/28 04:04:17;;;;;;;7.97;4.80;;;14.20;99.90;;;;;;5034099;28;20225;-95
2022/10/28 04:06:52;;;;;;;7.10;5.30;;;14.20;99.90;;;;;;5018613;28;20271;-96
2022/10/28 04:09:32;;;;;;;10.73;6.43;;;14.20;99.90;;;;;;4999619;28;20233;-96
2022/10/28 04:16:41;;;;;;;7.20;4.53;;;14.10;99.90;;;;;;4990318;28;20309;-96
2022/10/28 04:19:27;;;;;;;7.43;5.60;;;14.10;99.90;;;;;;5002951;28;20224;-96
2022/10/28 04:21:58;;;;;;;8.90;6.03;;;14.10;99.90;;;;;;5011690;28;20205;-94
2022/10/28 04:24:36;;;;;;;;;;;;;;;;;;;;;
2022/10/28 04:27:38;;;;;;;10.70;6.03;;;14.10;99.90;;;;;;5013325;28;20151;-95
2022/10/28 04:38:41;;;;;;;13.13;6.70;;;14.00;99.90;;;;;;4997218;28;20297;-96
2022/10/28 04:41:40;;;;;;;10.63;6.30;;;13.90;99.90;;;;;;4938203;28;20216;-96
2022/10/28 04:51:30;;;;;;;9.50;6.00;;;13.90;99.90;;;;;;4928166;28;20243;-96
2022/10/28 04:54:11;;;;;;;17.17;7.70;;;13.90;99.90;;;;;;4977775;28;20208;-96
2022/10/28 04:56:43;;;;;;;9.13;5.83;;;13.90;99.90;;;;;;4957430;28;20197;-96
2022/10/28 04:59:09;;;;;;;13.43;5.50;;;14.00;99.90;;;;;;4973368;28;20236;-95
2022/10/28 05:08:49;;;;;;;8.97;5.53;;;14.00;99.90;;;;;;4920752;29;20183;-96
2022/10/28 05:15:21;;;;;;;16.73;7.67;;;14.10;99.90;;;;;;4938187;28;20303;-96
2022/10/28 05:17:53;;;;;;;14.37;5.80;;;14.10;99.90;;;;;;4913319;28;20684;-95
2022/10/28 05:23:24;;;;;;;9.37;5.47;;;14.10;99.90;;;;;;4974702;28;20287;-96
2022/10/28 05:26:06;;;;;;;15.90;7.87;;;14.10;99.90;;;;;;4995321;28;20219;-96
2022/10/28 05:28:32;;;;;;;7.87;5.07;;;14.10;99.90;;;;;;4979143;28;20215;-95
2022/10/28 05:31:24;;;;;;;10.73;6.93;;;14.10;99.90;;;;;;4979305;28;20310;-96
2022/10/28 05:33:58;;;;;;;13.70;7.63;;;14.10;99.90;;;;;;4969474;28;20223;-95
2022/10/28 05:36:53;;;;;;;11.40;6.00;;;14.10;99.90;;;;;;4970176;28;20280;-95
2022/10/28 05:46:34;;;;;;;11.27;6.90;;;14.10;99.90;;;;;;4934375;28;20220;-96
2022/10/28 05:49:05;;;;;;;11.27;6.40;;;14.00;99.90;;;;;;4975745;28;20215;-95
2022/10/28 05:51:37;;;;;;;8.50;6.67;;;14.00;99.90;;;;;;4979695;28;20216;-95
2022/10/28 05:54:14;;;;;;;9.27;5.87;;;14.00;99.90;;;;;;5011745;28;20271;-96
2022/10/28 05:57:00;;;;;;;8.37;6.33;;;14.00;99.90;;;;;;4990024;28;20195;-95
2022/10/28 05:59:37;;;;;;;11.57;6.57;;;14.00;99.90;;;;;;5016210;28;20180;-95
2022/10/28 06:02:13;;;;;;;10.03;6.90;;;14.10;99.90;;;;;;5020935;28;20253;-96
2022/10/28 06:04:40;;;;;;;9.20;6.73;;;14.10;99.90;;;;;;5016853;28;20309;-95
2022/10/28 06:07:07;;;;;;;12.97;6.87;;;14.10;99.90;;;;;;5016577;28;20229;-96
2022/10/28 06:09:36;;;;;;;10.43;6.93;;;14.20;99.90;;;;;;5002212;28;20237;-96
2022/10/28 06:12:02;;;;;;;7.90;5.43;;;14.20;99.90;;;;;;5017248;28;20207;-94
2022/10/28 06:14:28;;;;;;;10.83;7.67;;;14.10;99.90;;;;;;5005281;28;20180;-95
2022/10/28 06:17:02;;;;;;;10.40;6.13;;;14.10;99.90;;;;;;5005816;28;20211;-96
2022/10/28 06:19:28;;;;;;;9.03;6.17;;;14.10;99.90;;;;;;5009939;28;20750;-95
2022/10/28 06:21:57;;;;;;;12.40;6.10;;;14.10;99.90;;;;;;5006697;28;20219;-91
2022/10/28 06:24:23;;;;;;;8.60;5.90;;;14.10;99.90;;;;;;4996351;28;20223;-92
2022/10/28 06:26:48;;;;;;;10.50;6.33;;;14.00;99.90;;;;;;4988631;28;20241;-91
2022/10/28 06:29:14;;;;;;;10.20;6.13;;;14.00;99.90;;;;;;5008886;28;20246;-91
2022/10/28 06:31:41;;;;;;;9.23;6.80;;;14.00;99.90;;;;;;4992209;28;20240;-92
2022/10/28 06:34:11;;;;;;;11.50;6.53;;;14.00;99.90;;;;;;5003274;28;20943;-93
2022/10/28 06:36:37;;;;;;;8.27;6.43;;;14.00;99.90;;;;;;5001409;28;20302;-92
2022/10/28 06:39:03;;;;;;;11.77;6.80;;;14.00;99.90;;;;;;4988423;28;20208;-93
2022/10/28 06:41:29;;;;;;;14.00;6.40;;;14.00;99.90;;;;;;5015660;28;20191;-92
2022/10/28 06:43:54;;;;;;;15.10;6.63;;;14.00;99.90;;;;;;4966705;28;20212;-91
2022/10/28 06:46:21;;;;;;;8.97;5.50;;;14.00;99.90;;;;;;4966699;28;20207;-91
2022/10/28 06:48:47;;;;;;;9.60;6.60;;;14.10;99.90;;;;;;4984627;28;20614;-90
2022/10/28 06:51:13;;;;;;;10.20;7.07;;;14.10;99.90;;;;;;4997879;28;20310;-91
2022/10/28 06:53:38;;;;;;;12.00;8.30;;;14.10;99.90;;;;;;4998423;28;20555;-90
2022/10/28 06:56:05;;;;;;;10.97;7.27;;;14.10;99.90;;;;;;4982123;28;20180;-90
2022/10/28 06:58:30;;;;;;;8.97;5.67;;;14.10;99.90;;;;;;4981951;28;20216;-90
2022/10/28 07:01:01;;;;;;;10.30;6.73;;;14.30;99.90;;;;;;4969355;28;20222;-90
2022/10/28 07:03:28;;;;;;;9.57;6.03;;;14.40;99.90;;;;;;5001363;28;20648;-92
2022/10/28 07:05:54;;;;;;;9.43;6.40;;;14.60;99.90;;;;;;5004054;28;20195;-90
2022/10/28 07:08:19;;;;;;;18.07;6.33;;;14.70;99.90;;;;;;5015143;28;20685;-91
2022/10/28 07:10:54;;;;;;;20.47;6.40;;;14.80;99.90;;;;;;4982374;28;20216;-96
2022/10/28 07:13:26;;;;;;;11.40;7.10;;;14.90;99.90;;;;;;5007125;28;20218;-96
2022/10/28 07:15:59;;;;;;;11.17;6.97;;;15.00;99.90;;;;;;5017296;28;20302;-96
2022/10/28 07:21:27;;;;;;;15.70;7.33;;;15.60;99.90;;;;;;5018694;28;20239;-89
2022/10/28 07:23:54;;;;;;;11.53;6.13;;;15.70;99.90;;;;;;4994124;28;20218;-89
2022/10/28 07:26:20;;;;;;;9.63;5.87;;;15.90;99.90;;;;;;4998338;28;20201;-93
2022/10/28 07:28:46;;;;;;;10.10;7.00;;;15.80;99.90;;;;;;4991668;28;20211;-92
2022/10/28 07:31:11;;;;;;;11.10;6.40;;;15.90;99.90;;;;;;4994641;28;20231;-94
2022/10/28 07:33:37;;;;;;;16.47;6.47;;;16.00;99.90;;;;;;4997739;28;20222;-90
2022/10/28 07:36:04;;;;;;;9.63;5.87;;;16.30;99.90;;;;;;5010168;28;20246;-90
2022/10/28 07:38:30;;;;;;;9.47;6.07;;;16.50;99.90;;;;;;5010651;28;20179;-90
2022/10/28 07:40:56;;;;;;;7.23;5.27;;;16.70;99.90;;;;;;4998616;28;20226;-91
2022/10/28 07:43:22;;;;;;;8.03;5.03;;;16.70;99.90;;;;;;5014387;28;20230;-89
2022/10/28 07:45:55;;;;;;;11.17;6.50;;;16.90;99.90;;;;;;5018206;28;20219;-91
2022/10/28 07:48:20;;;;;;;10.37;5.60;;;17.20;99.90;;;;;;5015352;28;20223;-93
2022/10/28 07:50:46;;;;;;;12.43;5.83;;;17.50;99.90;;;;;;4986484;28;20215;-92
2022/10/28 07:53:12;;;;;;;8.60;4.60;;;17.80;99.90;;;;;;4980524;28;20201;-91
2022/10/28 07:55:37;;;;;;;13.80;4.87;;;18.40;99.90;;;;;;5013520;28;20214;-91
2022/10/28 07:58:03;;;;;;;8.30;6.07;;;19.00;99.90;;;;;;5010067;28;20222;-92
2022/10/28 08:00:29;;;;;;;17.17;6.70;;;19.30;99.90;;;;;;4980990;28;20228;-90
2022/10/28 08:02:55;;;;;;;9.07;4.10;;;19.40;99.90;;;;;;4978296;28;20195;-92
2022/10/28 08:05:21;;;;;;;14.87;5.17;;;19.50;99.90;;;;;;4982635;28;20190;-92
2022/10/28 08:07:47;;;;;;;5.70;4.00;;;19.80;99.90;;;;;;4981444;28;20233;-93
2022/10/28 08:10:13;;;;;;;8.00;4.43;;;19.70;99.90;;;;;;4981353;28;20234;-91
2022/10/28 08:12:38;;;;;;;7.83;4.97;;;19.80;99.90;;;;;;5000131;28;20262;-90
2022/10/28 08:15:05;;;;;;;7.13;4.73;;;20.10;99.90;;;;;;4969801;28;20231;-91
2022/10/28 08:17:30;;;;;;;7.30;3.90;;;20.00;99.90;;;;;;4993221;28;20216;-90
2022/10/28 08:19:56;;;;;;;5.53;3.67;;;19.70;99.90;;;;;;4969223;28;20733;-92
2022/10/28 08:22:22;;;;;;;5.03;3.20;;;19.40;99.90;;;;;;4976382;28;20224;-90
2022/10/28 08:24:48;;;;;;;7.03;4.17;;;18.90;99.90;;;;;;4985433;28;20273;-94
2022/10/28 08:27:14;;;;;;;4.90;4.10;;;18.70;99.90;;;;;;5005010;28;20372;-92
2022/10/28 08:29:39;;;;;;;7.53;4.40;;;18.40;99.90;;;;;;4980316;28;20679;-91
2022/10/28 08:32:08;;;;;;;7.13;3.27;;;18.30;99.90;;;;;;5011746;28;20190;-91
2022/10/28 08:34:34;;;;;;;11.67;3.93;;;18.40;99.90;;;;;;5013566;28;20223;-91
2022/10/28 08:37:00;;;;;;;4.10;3.13;;;18.50;99.90;;;;;;4995505;28;20695;-92
2022/10/28 08:39:26;;;;;;;8.17;5.13;;;18.30;99.90;;;;;;5022292;28;20269;-94
2022/10/28 08:42:17;;;;;;;7.70;4.20;;;18.20;99.90;;;;;;5004231;28;20202;-93
2022/10/28 08:45:17;;;;;;;9.93;4.30;;;18.20;99.90;;;;;;5044970;28;20171;-92
2022/10/28 08:47:47;;;;;;;5.73;3.80;;;18.10;99.90;;;;;;5021687;28;20275;-93
2022/10/28 08:50:18;;;;;;;10.40;4.50;;;17.90;99.90;;;;;;5017829;28;20233;-91
2022/10/28 08:53:17;;;;;;;9.30;3.47;;;17.90;99.90;;;;;;5013336;28;20215;-90
2022/10/28 08:55:46;;;;;;;14.73;5.27;;;17.90;99.90;;;;;;5014525;28;20222;-90
2022/10/28 08:58:23;;;;;;;9.33;3.47;;;17.70;99.90;;;;;;5015083;28;20219;-90
2022/10/28 09:00:53;;;;;;;5.40;3.83;;;17.70;99.90;;;;;;5010724;28;20246;-90
2022/10/28 09:03:25;;;;;;;7.93;4.37;;;17.60;99.90;;;;;;4997711;28;20223;-90
2022/10/28 09:06:05;;;;;;;6.70;4.30;;;17.60;99.90;;;;;;5022021;28;20274;-92
2022/10/28 09:08:56;;;;;;;6.57;3.50;;;17.60;99.90;;;;;;5017168;28;20214;-91
2022/10/28 09:11:25;;;;;;;5.47;3.37;;;17.60;99.90;;;;;;5017157;28;20269;-92
2022/10/28 09:14:07;;;;;;;8.07;4.13;;;17.60;99.90;;;;;;5024437;28;20222;-88
2022/10/28 09:16:39;;;;;;;6.37;4.27;;;17.50;99.90;;;;;;5018679;28;20226;-92
2022/10/28 09:19:37;;;;;;;10.80;4.27;;;17.50;99.90;;;;;;5020316;28;20219;-91
2022/10/28 09:22:40;;;;;;;10.90;4.07;;;17.50;99.90;;;;;;5026381;28;20313;-93
2022/10/28 09:25:30;;;;;;;4.10;2.80;;;17.50;99.90;;;;;;5015819;28;20230;-89
2022/10/28 09:28:15;;;;;;;8.63;4.50;;;17.50;99.90;;;;;;5030777;28;20281;-89
2022/10/28 09:31:00;;;;;;;12.10;4.43;;;17.50;99.90;;;;;;5020916;28;20727;-89
2022/10/28 09:33:39;;;;;;;9.57;4.17;;;17.50;99.90;;;;;;5028621;28;20233;-88
2022/10/28 09:36:13;;;;;;;10.23;4.23;;;17.60;99.90;;;;;;5025738;28;20234;-90
2022/10/28 09:38:39;;;;;;;11.13;4.70;;;17.70;99.90;;;;;;5020397;28;20632;-89
2022/10/28 09:41:23;;;;;;;6.40;3.70;;;17.70;99.90;;;;;;5021296;28;20244;-90
2022/10/28 09:44:02;;;;;;;9.33;3.60;;;17.80;99.90;;;;;;5023197;28;20309;-89
2022/10/28 09:46:31;;;;;;;4.73;3.47;;;17.80;99.90;;;;;;5008322;28;20229;-91
2022/10/28 09:49:03;;;;;;;6.63;3.73;;;17.80;99.90;;;;;;5029836;28;20218;-90
2022/10/28 09:51:54;;;;;;;4.70;3.93;;;17.80;99.90;;;;;;5017808;28;20262;-89
2022/10/28 09:54:46;;;;;;;14.87;4.83;;;17.90;99.90;;;;;;5031787;28;20226;-90
2022/10/28 09:57:11;;;;;;;5.33;4.83;;;17.90;99.90;;;;;;5018463;28;20230;-88
2022/10/28 09:59:37;;;;;;;7.50;2.93;;;18.00;99.90;;;;;;5017773;28;20710;-90
2022/10/28 10:02:04;;;;;;;7.63;3.73;;;18.00;99.90;;;;;;5000342;28;20230;-85
2022/10/28 10:04:30;;;;;;;9.90;4.50;;;18.10;99.90;;;;;;5017180;28;20592;-90
2022/10/28 10:07:11;;;;;;;8.60;3.53;;;18.10;99.90;;;;;;4999104;28;20760;-89
2022/10/28 10:09:38;;;;;;;9.37;4.37;;;18.20;99.90;;;;;;5025728;28;20238;-91
2022/10/28 10:12:11;;;;;;;8.87;3.80;;;18.20;99.90;;;;;;5010994;28;20242;-91
2022/10/28 10:14:55;;;;;;;9.57;4.70;;;18.30;99.90;;;;;;5014525;28;20674;-87
2022/10/28 10:17:29;;;;;;;10.63;4.27;;;18.40;99.90;;;;;;5012451;28;20187;-90
2022/10/28 10:20:03;;;;;;;7.70;4.63;;;18.50;99.90;;;;;;5018249;28;20273;-90
2022/10/28 10:22:43;;;;;;;7.47;4.37;;;18.60;99.90;;;;;;5010568;28;20218;-89
2022/10/28 10:25:18;;;;;;;11.87;4.50;;;18.70;99.90;;;;;;5004180;28;20223;-90
2022/10/28 10:27:58;;;;;;;7.27;3.73;;;18.80;99.90;;;;;;5035143;28;20226;-90
2022/10/28 10:30:30;;;;;;;7.00;3.87;;;18.90;99.90;;;;;;5011012;28;20230;-91
2022/10/28 10:32:57;;;;;;;5.23;3.60;;;18.90;99.90;;;;;;5023520;28;20184;-89
2022/10/28 10:35:30;;;;;;;5.97;3.63;;;19.00;99.90;;;;;;5011045;28;20190;-90
2022/10/28 10:37:59;;;;;;;8.43;4.37;;;19.10;99.90;;;;;;5015114;28;20229;-90
2022/10/28 10:40:34;;;;;;;6.03;4.13;;;19.10;99.90;;;;;;5015741;28;20391;-91
2022/10/28 10:43:32;;;;;;;10.43;4.83;;;19.10;99.90;;;;;;5014033;28;20222;-90
2022/10/28 10:46:13;;;;;;;6.40;3.77;;;19.10;99.90;;;;;;5023614;28;20700;-89
2022/10/28 10:48:40;;;;;;;5.83;3.37;;;19.10;99.90;;;;;;5018738;28;20223;-90
2022/10/28 10:51:15;;;;;;;9.50;3.83;;;19.20;99.90;;;;;;4993689;28;20238;-90
2022/10/28 10:53:46;;;;;;;12.20;4.13;;;19.50;99.90;;;;;;5026652;28;20220;-89
2022/10/28 10:56:14;;;;;;;13.07;4.70;;;19.90;99.90;;;;;;5016403;28;20607;-91
2022/10/28 10:58:48;;;;;;;12.00;4.07;;;20.30;99.90;;;;;;4977469;28;20277;-90
2022/10/28 11:01:20;;;;;;;9.33;5.07;;;21.00;99.90;;;;;;5030026;28;20234;-90
2022/10/28 11:03:59;;;;;;;7.20;3.53;;;21.60;99.90;;;;;;5021419;28;20222;-91
2022/10/28 11:06:35;;;;;;;10.67;4.50;;;21.80;99.90;;;;;;5000779;28;20346;-89
2022/10/28 11:09:38;;;;;;;6.37;3.83;;;21.80;99.90;;;;;;5009797;28;20214;-92
2022/10/28 11:12:36;;;;;;;6.00;3.80;;;21.80;99.90;;;;;;5011736;28;20224;-91
2022/10/28 11:15:19;;;;;;;9.27;4.03;;;21.80;99.90;;;;;;5021839;28;20210;-92
2022/10/28 11:18:01;;;;;;;8.97;4.77;;;21.70;99.90;;;;;;5009897;28;20199;-85
2022/10/28 11:20:42;;;;;;;10.90;4.30;;;21.50;99.90;;;;;;5028609;28;20238;-89
2022/10/28 11:23:11;;;;;;;8.40;4.10;;;21.30;99.90;;;;;;5028180;28;20223;-87
2022/10/28 11:25:44;;;;;;;6.33;4.13;;;21.10;99.90;;;;;;5018064;28;20313;-88
2022/10/28 11:28:32;;;;;;;8.00;3.73;;;21.10;99.90;;;;;;5041268;28;20305;-88
2022/10/28 11:31:14;;;;;;;7.03;2.97;;;21.20;99.90;;;;;;5028090;28;20239;-87
2022/10/28 11:33:49;;;;;;;7.40;3.47;;;21.20;99.90;;;;;;5032446;28;20218;-86
2022/10/28 11:36:29;;;;;;;5.53;3.13;;;21.50;99.90;;;;;;5032717;28;20217;-87
2022/10/28 11:39:23;;;;;;;9.23;3.50;;;21.60;99.90;;;;;;5034162;28;20179;-88
2022/10/28 11:42:30;;;;;;;5.73;3.50;;;21.40;99.90;;;;;;5018449;28;20193;-89
2022/10/28 11:45:09;;;;;;;5.57;3.40;;;21.20;99.90;;;;;;5028692;28;20183;-88
2022/10/28 11:48:14;;;;;;;8.47;3.60;;;21.00;99.90;;;;;;5017510;28;20194;-89
2022/10/28 11:50:48;;;;;;;4.90;3.30;;;21.10;99.90;;;;;;5033057;28;20313;-89
2022/10/28 11:53:40;;;;;;;10.40;3.47;;;21.10;99.90;;;;;;5016172;28;21077;-88
2022/10/28 11:56:45;;;;;;;5.87;3.83;;;20.90;99.90;;;;;;5017944;28;20294;-87
2022/10/28 11:59:38;;;;;;;8.77;3.60;;;20.80;99.90;;;;;;5017033;28;20697;-88
2022/10/28 12:02:31;;;;;;;7.30;3.53;;;20.80;99.90;;;;;;5037150;28;20225;-88
2022/10/28 12:05:16;;;;;;;9.20;4.27;;;20.70;99.90;;;;;;5033521;28;20219;-87
2022/10/28 12:07:47;;;;;;;7.83;3.93;;;20.70;99.90;;;;;;5033859;28;20244;-86
2022/10/28 12:10:32;;;;;;;5.70;3.73;;;20.60;99.90;;;;;;5016484;28;20226;-89
2022/10/28 12:13:17;;;;;;;9.97;3.30;;;20.40;99.90;;;;;;5026281;28;20345;-88
2022/10/28 12:16:09;;;;;;;5.73;3.43;;;20.50;99.90;;;;;;5028085;28;20234;-88
2022/10/28 12:18:58;;;;;;;6.90;3.93;;;20.50;99.90;;;;;;5032214;28;20324;-88
2022/10/28 12:21:44;;;;;;;8.43;3.03;;;20.40;99.90;;;;;;5007225;28;20322;-89
2022/10/28 12:24:20;;;;;;;7.67;3.07;;;20.40;99.90;;;;;;5024431;28;20224;-87
2022/10/28 12:26:58;;;;;;;13.37;3.73;;;20.40;99.90;;;;;;5006509;28;20860;-89
2022/10/28 12:29:32;;;;;;;6.90;3.53;;;20.50;99.90;;;;;;5006872;28;20179;-88
2022/10/28 12:32:06;;;;;;;6.90;3.80;;;20.50;99.90;;;;;;4988383;28;20231;-88
2022/10/28 12:34:47;;;;;;;6.57;3.43;;;20.50;99.90;;;;;;5006182;28;20214;-86
2022/10/28 12:37:20;;;;;;;3.87;2.87;;;20.50;99.90;;;;;;5005064;28;20221;-86
2022/10/28 12:39:58;;;;;;;8.03;3.73;;;20.50;99.90;;;;;;4994719;28;20234;-89
2022/10/28 12:42:35;;;;;;;6.53;3.00;;;20.50;99.90;;;;;;5005239;28;20227;-86
2022/10/28 12:45:08;;;;;;;12.40;4.40;;;20.60;99.90;;;;;;5005633;28;20281;-88
2022/10/28 12:48:17;;;;;;;8.03;3.57;;;20.50;99.90;;;;;;5005780;28;20184;-86
2022/10/28 12:50:48;;;;;;;7.97;3.80;;;20.60;99.90;;;;;;4967904;28;20234;-89
2022/10/28 12:53:40;;;;;;;7.63;3.33;;;20.50;99.90;;;;;;4987176;28;20184;-92
2022/10/28 12:56:14;;;;;;;8.73;3.20;;;20.50;99.90;;;;;;5023409;28;20225;-87
2022/10/28 12:59:09;;;;;;;6.87;3.63;;;20.50;99.90;;;;;;5007944;28;20214;-88
2022/10/28 13:01:36;;;;;;;6.83;4.03;;;20.40;99.90;;;;;;5024469;28;20997;-88
2022/10/28 13:04:02;;;;;;;10.37;3.53;;;20.30;99.90;;;;;;5025157;28;20245;-88
2022/10/28 13:06:37;;;;;;;7.23;3.43;;;20.20;99.90;;;;;;4992178;28;20215;-90
2022/10/28 13:09:29;;;;;;;13.73;3.17;;;20.20;99.90;;;;;;5025998;28;20271;-89
2022/10/28 13:12:25;;;;;;;8.97;3.90;;;20.20;99.90;;;;;;5008043;28;20516;-88
2022/10/28 13:15:09;;;;;;;8.50;3.30;;;20.20;99.90;;;;;;5022186;28;20671;-87
2022/10/28 13:17:47;;;;;;;11.17;3.67;;;20.10;99.90;;;;;;5005884;28;20191;-89
2022/10/28 13:20:15;;;;;;;6.30;2.87;;;20.10;99.90;;;;;;5004816;28;20250;-88
2022/10/28 13:23:09;;;;;;;5.20;3.03;;;20.10;99.90;;;;;;5022117;28;20233;-88
2022/10/28 13:25:54;;;;;;;5.90;3.73;;;20.00;99.90;;;;;;5028891;28;20215;-91
2022/10/28 13:28:21;;;;;;;11.23;4.60;;;20.00;99.90;;;;;;5011975;28;20257;-88
2022/10/28 13:30:59;;;;;;;8.53;3.40;;;20.00;99.90;;;;;;5019912;28;20238;-90
2022/10/28 13:33:28;;;;;;;5.13;3.40;;;19.90;99.90;;;;;;5012270;28;20227;-88
2022/10/28 13:36:26;;;;;;;7.93;3.67;;;19.90;99.90;;;;;;5008019;28;20814;-89
2022/10/28 13:39:00;;;;;;;5.93;3.30;;;19.80;99.90;;;;;;5000721;28;20199;-90
2022/10/28 13:41:32;;;;;;;4.63;3.37;;;19.70;99.90;;;;;;5010013;28;20182;-91
2022/10/28 13:44:12;;;;;;;4.43;2.77;;;19.70;99.90;;;;;;5014270;28;20255;-89
2022/10/28 13:47:12;;;;;;;7.40;4.00;;;19.60;99.90;;;;;;5026075;28;20214;-90
2022/10/28 13:49:58;;;;;;;11.03;4.27;;;19.60;99.90;;;;;;5028277;28;20238;-89
2022/10/28 13:52:23;;;;;;;9.40;4.17;;;19.60;99.90;;;;;;5028660;28;20226;-88
2022/10/28 13:54:54;;;;;;;5.77;2.70;;;19.60;99.90;;;;;;5011630;28;20222;-88
2022/10/28 13:57:34;;;;;;;15.07;4.97;;;19.50;99.90;;;;;;5024291;28;20226;-86
2022/10/28 14:00:03;;;;;;;9.00;3.50;;;19.50;99.90;;;;;;5029870;28;20448;-90
2022/10/28 14:02:36;;;;;;;7.63;4.63;;;19.50;99.90;;;;;;5029643;28;20187;-87
2022/10/28 14:05:11;;;;;;;6.53;3.57;;;19.40;99.90;;;;;;5028569;28;20321;-87
2022/10/28 14:07:56;;;;;;;5.40;3.60;;;19.40;99.90;;;;;;5028530;28;20214;-87
2022/10/28 14:10:23;;;;;;;11.37;4.00;;;19.30;99.90;;;;;;5022295;28;20226;-89
2022/10/28 14:13:16;;;;;;;12.83;5.10;;;19.30;99.90;;;;;;5033377;28;20599;-88
2022/10/28 14:15:42;;;;;;;6.40;3.23;;;19.20;99.90;;;;;;5040920;28;20222;-88
2022/10/28 14:18:16;;;;;;;8.80;4.03;;;19.20;99.90;;;;;;5019432;28;20218;-86
2022/10/28 14:20:47;;;;;;;5.03;3.53;;;19.30;99.90;;;;;;5026577;28;20246;-89
2022/10/28 14:23:19;;;;;;;7.37;3.43;;;19.30;99.90;;;;;;5028427;28;20222;-87
2022/10/28 14:25:52;;;;;;;7.00;3.93;;;19.20;99.90;;;;;;5026635;28;20221;-86
2022/10/28 14:28:27;;;;;;;11.80;4.53;;;19.20;99.90;;;;;;5027638;28;20586;-84
2022/10/28 14:31:11;;;;;;;9.10;3.93;;;19.20;99.90;;;;;;5026324;28;20790;-86
2022/10/28 14:33:38;;;;;;;5.27;3.43;;;19.30;99.90;;;;;;5026674;28;21553;-86
2022/10/28 14:36:19;;;;;;;8.57;2.90;;;19.20;99.90;;;;;;5001806;28;20215;-87
2022/10/28 14:39:06;;;;;;;7.87;3.23;;;19.10;99.90;;;;;;4997633;28;20191;-87
2022/10/28 14:42:04;;;;;;;7.63;3.70;;;19.20;99.90;;;;;;5016952;28;20269;-86
2022/10/28 14:44:46;;;;;;;3.73;2.80;;;19.20;99.90;;;;;;4968573;28;20239;-87
2022/10/28 14:47:46;;;;;;;7.57;3.43;;;19.10;99.90;;;;;;5026648;28;21079;-87
2022/10/28 14:50:24;;;;;;;3.67;2.27;;;19.10;99.90;;;;;;5017239;28;20242;-86
2022/10/28 14:52:52;;;;;;;8.53;3.47;;;19.10;99.90;;;;;;4994529;28;20218;-87
2022/10/28 14:55:24;;;;;;;13.70;3.07;;;19.10;99.90;;;;;;5012564;28;20222;-85
2022/10/28 14:57:50;;;;;;;5.77;3.30;;;19.00;99.90;;;;;;5023716;28;20708;-88
2022/10/28 15:00:22;;;;;;;5.87;3.97;;;18.90;99.90;;;;;;5015495;28;20242;-86
2022/10/28 15:02:49;;;;;;;9.80;3.37;;;18.90;99.90;;;;;;5005964;28;20203;-86
2022/10/28 15:05:19;;;;;;;9.47;3.37;;;18.90;99.90;;;;;;5018514;28;20745;-87
2022/10/28 15:07:45;;;;;;;11.80;4.07;;;19.00;99.90;;;;;;5009183;28;20357;-88
2022/10/28 15:10:21;;;;;;;10.00;2.70;;;18.90;99.90;;;;;;5009894;28;20238;-86
2022/10/28 15:12:49;;;;;;;7.67;3.13;;;18.90;99.90;;;;;;5025494;28;20218;-85
2022/10/28 15:15:20;;;;;;;8.80;3.90;;;18.90;99.90;;;;;;5026901;28;20341;-86
2022/10/28 15:17:46;;;;;;;6.87;4.67;;;18.80;99.90;;;;;;5008623;28;20213;-87
2022/10/28 15:20:23;;;;;;;3.37;2.70;;;18.80;99.90;;;;;;5009426;28;20242;-87
2022/10/28 15:22:49;;;;;;;6.87;2.70;;;18.70;99.90;;;;;;5024045;28;20229;-88
2022/10/28 15:25:19;;;;;;;9.10;3.17;;;18.70;99.90;;;;;;5022814;28;20436;-86
2022/10/28 15:27:46;;;;;;;7.37;3.40;;;18.60;99.90;;;;;;5017218;28;20214;-87
2022/10/28 15:30:19;;;;;;;6.10;2.77;;;18.60;99.90;;;;;;5007580;28;20709;-89
2022/10/28 15:32:45;;;;;;;9.63;2.93;;;18.60;99.90;;;;;;5026065;28;20191;-85
2022/10/28 15:35:26;;;;;;;3.67;2.67;;;18.50;99.90;;;;;;5019000;28;20194;-87
2022/10/28 15:37:53;;;;;;;13.00;3.20;;;18.50;99.90;;;;;;5010086;28;20218;-88
2022/10/28 15:40:19;;;;;;;7.10;2.87;;;18.50;99.90;;;;;;5008893;28;20313;-88
2022/10/28 15:42:52;;;;;;;3.13;2.40;;;18.50;99.90;;;;;;5025542;28;20361;-87
2022/10/28 15:45:24;;;;;;;11.37;2.93;;;18.50;99.90;;;;;;5007135;28;20226;-87
2022/10/28 15:47:50;;;;;;;10.70;3.17;;;18.40;99.90;;;;;;5022324;28;20185;-87